createdAt,value
2024-05-09T00:00:36.456Z,9.84
2024-05-09T00:03:08.016Z,9.83
2024-05-09T00:05:35.668Z,9.83
2024-05-09T00:08:02.626Z,9.79
2024-05-09T00:10:35.805Z,9.76
2024-05-09T00:13:05.295Z,9.72
2024-05-09T00:15:33.320Z,9.68
2024-05-09T00:18:00.267Z,9.60
2024-05-09T00:20:35.271Z,9.51
2024-05-09T00:23:07.391Z,9.47
2024-05-09T00:25:34.593Z,9.45
2024-05-09T00:28:01.190Z,9.44
2024-05-09T00:30:33.792Z,9.42
2024-05-09T00:33:03.777Z,9.39
2024-05-09T00:35:31.054Z,9.36
2024-05-09T00:37:58.129Z,9.30
2024-05-09T00:40:35.313Z,9.23
2024-05-09T00:43:06.192Z,9.15
2024-05-09T00:45:34.214Z,9.10
2024-05-09T00:48:06.734Z,9.07
2024-05-09T00:50:37.497Z,8.99
2024-05-09T00:53:06.652Z,8.92
2024-05-09T00:55:35.140Z,8.88
2024-05-09T00:58:02.833Z,8.81
2024-05-09T01:00:37.835Z,8.78
2024-05-09T01:03:07.313Z,8.78
2024-05-09T01:05:35.048Z,8.74
2024-05-09T01:08:02.731Z,8.72
2024-05-09T01:10:34.421Z,8.69
2024-05-09T01:13:03.359Z,8.68
2024-05-09T01:15:29.943Z,8.66
2024-05-09T01:17:57.099Z,8.65
2024-05-09T01:20:36.338Z,8.66
2024-05-09T01:23:09.577Z,8.58
2024-05-09T01:25:36.735Z,8.54
2024-05-09T01:28:03.585Z,8.56
2024-05-09T01:30:34.880Z,8.54
2024-05-09T01:33:04.983Z,8.54
2024-05-09T01:35:32.454Z,8.54
2024-05-09T01:37:59.103Z,8.53
2024-05-09T01:40:36.107Z,8.50
2024-05-09T01:43:05.817Z,8.46
2024-05-09T01:45:32.420Z,8.48
2024-05-09T01:47:59.295Z,8.50
2024-05-09T01:50:37.153Z,8.45
2024-05-09T01:53:07.677Z,8.36
2024-05-09T01:55:34.468Z,8.34
2024-05-09T01:58:01.045Z,8.32
2024-05-09T02:00:37.835Z,8.28
2024-05-09T02:03:15.180Z,8.27
2024-05-09T02:05:45.006Z,8.26
2024-05-09T02:08:17.730Z,8.19
2024-05-09T02:10:45.445Z,8.12
2024-05-09T02:13:13.035Z,8.12
2024-05-09T02:15:39.821Z,8.12
2024-05-09T02:18:08.076Z,8.08
2024-05-09T02:20:36.943Z,8.05
2024-05-09T02:23:06.052Z,8.05
2024-05-09T02:25:33.231Z,8.01
2024-05-09T02:27:59.987Z,7.95
2024-05-09T02:30:36.574Z,7.97
2024-05-09T02:33:07.783Z,7.97
2024-05-09T02:35:34.967Z,7.95
2024-05-09T02:38:01.919Z,7.93
2024-05-09T02:40:36.098Z,7.92
2024-05-09T02:43:05.768Z,7.89
2024-05-09T02:45:32.782Z,7.85
2024-05-09T02:47:59.697Z,7.83
2024-05-09T02:50:34.199Z,7.82
2024-05-09T02:53:05.535Z,7.78
2024-05-09T02:55:32.502Z,7.71
2024-05-09T02:57:59.238Z,7.65
2024-05-09T03:00:34.682Z,7.63
2024-05-09T03:03:08.084Z,7.61
2024-05-09T03:05:35.727Z,7.60
2024-05-09T03:08:02.452Z,7.64
2024-05-09T03:10:35.336Z,7.61
2024-05-09T03:13:08.540Z,7.59
2024-05-09T03:15:35.491Z,7.57
2024-05-09T03:18:02.890Z,7.59
2024-05-09T03:20:34.215Z,7.59
2024-05-09T03:23:03.591Z,7.56
2024-05-09T03:25:30.579Z,7.52
2024-05-09T03:27:57.214Z,7.48
2024-05-09T03:30:35.873Z,7.47
2024-05-09T03:33:15.290Z,7.41
2024-05-09T03:35:46.086Z,7.40
2024-05-09T03:38:12.837Z,7.37
2024-05-09T03:40:47.167Z,7.27
2024-05-09T03:43:14.371Z,7.24
2024-05-09T03:45:42.496Z,7.23
2024-05-09T03:48:09.213Z,7.24
2024-05-09T03:50:36.901Z,7.26
2024-05-09T03:53:04.380Z,7.27
2024-05-09T03:55:31.323Z,7.27
2024-05-09T03:57:58.236Z,7.29
2024-05-09T04:00:31.521Z,7.25
2024-05-09T04:03:06.079Z,7.21
2024-05-09T04:05:34.447Z,7.19
2024-05-09T04:08:01.912Z,7.13
2024-05-09T04:10:33.467Z,7.10
2024-05-09T04:13:01.936Z,7.09
2024-05-09T04:15:28.720Z,7.10
2024-05-09T04:17:55.671Z,7.07
2024-05-09T04:20:33.096Z,7.03
2024-05-09T04:23:06.347Z,7.01
2024-05-09T04:25:33.417Z,6.99
2024-05-09T04:28:00.028Z,6.99
2024-05-09T04:30:35.989Z,7.02
2024-05-09T04:33:07.127Z,7.03
2024-05-09T04:35:35.154Z,7.06
2024-05-09T04:38:01.889Z,7.08
2024-05-09T04:40:33.805Z,7.08
2024-05-09T04:43:04.251Z,7.07
2024-05-09T04:45:30.998Z,7.11
2024-05-09T04:47:58.982Z,7.10
2024-05-09T04:50:35.243Z,7.14
2024-05-09T04:53:05.500Z,7.16
2024-05-09T04:55:33.034Z,7.19
2024-05-09T04:57:59.777Z,7.22
2024-05-09T05:00:34.521Z,7.27
2024-05-09T05:03:07.020Z,7.35
2024-05-09T05:05:37.364Z,7.39
2024-05-09T05:08:04.434Z,7.43
2024-05-09T05:10:36.040Z,7.49
2024-05-09T05:13:20.752Z,7.54
2024-05-09T05:15:49.781Z,7.62
2024-05-09T05:18:17.332Z,7.68
2024-05-09T05:20:44.537Z,7.74
2024-05-09T05:23:13.532Z,7.78
2024-05-09T05:25:43.952Z,7.86
2024-05-09T05:28:11.012Z,7.95
2024-05-09T05:30:38.554Z,8.03
2024-05-09T05:33:06.537Z,8.13
2024-05-09T05:35:34.368Z,8.21
2024-05-09T05:38:01.423Z,8.33
2024-05-09T05:40:35.774Z,8.42
2024-05-09T05:43:05.453Z,8.67
2024-05-09T05:45:31.990Z,9.09
2024-05-09T05:47:59.952Z,9.51
2024-05-09T05:50:32.824Z,9.56
2024-05-09T05:53:03.268Z,9.54
2024-05-09T05:55:30.002Z,9.70
2024-05-09T05:57:56.694Z,9.75
2024-05-09T06:00:29.921Z,9.81
2024-05-09T06:03:05.090Z,9.91
2024-05-09T06:05:32.170Z,10.01
2024-05-09T06:07:59.078Z,10.17
2024-05-09T06:10:30.406Z,10.56
2024-05-09T06:13:04.393Z,10.76
2024-05-09T06:15:31.024Z,10.97
2024-05-09T06:17:57.777Z,11.46
2024-05-09T06:20:33.990Z,11.87
2024-05-09T06:23:03.600Z,12.35
2024-05-09T06:25:30.272Z,13.11
2024-05-09T06:27:56.949Z,13.95
2024-05-09T06:30:34.473Z,14.23
2024-05-09T06:33:06.230Z,13.81
2024-05-09T06:35:33.619Z,14.39
2024-05-09T06:38:00.750Z,14.21
2024-05-09T06:40:36.213Z,13.87
2024-05-09T06:43:05.762Z,13.99
2024-05-09T06:45:32.510Z,14.88
2024-05-09T06:47:59.359Z,17.69
2024-05-09T06:50:28.654Z,20.39
2024-05-09T06:53:02.436Z,22.63
2024-05-09T06:55:29.196Z,23.98
2024-05-09T06:57:55.829Z,24.06
2024-05-09T07:00:30.610Z,22.97
2024-05-09T07:03:12.917Z,22.83
2024-05-09T07:05:41.748Z,23.19
2024-05-09T07:08:08.581Z,23.37
2024-05-09T07:10:36.668Z,24.35
2024-05-09T07:13:14.955Z,25.17
2024-05-09T07:15:42.479Z,24.48
2024-05-09T07:18:15.370Z,25.64
2024-05-09T07:20:42.749Z,26.52
2024-05-09T07:23:10.617Z,26.93
2024-05-09T07:25:37.550Z,26.83
2024-05-09T07:28:04.509Z,26.23
2024-05-09T07:30:34.264Z,26.42
2024-05-09T07:33:02.801Z,26.70
2024-05-09T07:35:30.381Z,26.89
2024-05-09T07:37:57.352Z,27.22
2024-05-09T07:40:32.730Z,27.41
2024-05-09T07:43:07.432Z,27.29
2024-05-09T07:52:23.787Z,26.76
2024-05-09T07:53:38.842Z,26.85
2024-05-09T07:56:09.003Z,27.05
2024-05-09T07:58:36.086Z,27.37
2024-05-09T08:01:02.936Z,26.84
2024-05-09T08:03:29.836Z,26.35
2024-05-09T08:05:56.559Z,26.17
2024-05-09T08:08:23.350Z,25.19
2024-05-09T08:10:51.017Z,24.88
2024-05-09T08:13:17.819Z,24.31
2024-05-09T08:15:44.821Z,23.83
2024-05-09T08:18:11.724Z,23.40
2024-05-09T08:20:39.570Z,22.92
2024-05-09T08:23:06.433Z,22.70
2024-05-09T08:25:33.161Z,22.37
2024-05-09T08:27:59.933Z,22.20
2024-05-09T08:30:33.434Z,22.05
2024-05-09T08:33:05.106Z,21.81
2024-05-09T08:35:32.618Z,21.55
2024-05-09T08:37:59.333Z,21.58
2024-05-09T08:40:33.436Z,21.59
2024-05-09T08:43:02.988Z,21.33
2024-05-09T08:45:31.192Z,21.36
2024-05-09T08:48:01.290Z,21.27
2024-05-09T08:50:36.088Z,21.25
2024-05-09T08:53:05.924Z,21.16
2024-05-09T08:55:32.681Z,21.18
2024-05-09T08:58:02.524Z,21.33
2024-05-09T09:00:36.795Z,21.14
2024-05-09T09:03:09.020Z,21.11
2024-05-09T09:05:38.624Z,20.99
2024-05-09T09:08:08.440Z,20.93
2024-05-09T09:10:35.610Z,20.72
2024-05-09T09:13:04.703Z,20.55
2024-05-09T09:15:32.078Z,20.18
2024-05-09T09:18:02.133Z,19.93
2024-05-09T09:20:35.829Z,19.73
2024-05-09T09:23:04.494Z,19.60
2024-05-09T09:25:31.915Z,19.52
2024-05-09T09:27:59.146Z,19.43
2024-05-09T09:30:36.340Z,19.72
2024-05-09T09:33:05.959Z,20.00
2024-05-09T09:35:33.009Z,20.17
2024-05-09T09:38:03.081Z,20.19
2024-05-09T09:40:42.980Z,20.40
2024-05-09T09:43:21.987Z,20.42
2024-05-09T09:45:53.786Z,20.55
2024-05-09T09:48:22.198Z,20.69
2024-05-09T09:50:54.386Z,20.86
2024-05-09T09:53:22.915Z,20.86
2024-05-09T09:55:52.020Z,20.85
2024-05-09T09:58:19.302Z,21.02
2024-05-09T10:00:46.243Z,21.05
2024-05-09T10:03:13.365Z,20.80
2024-05-09T10:05:42.118Z,20.93
2024-05-09T10:08:12.035Z,21.13
2024-05-09T10:10:38.973Z,21.29
2024-05-09T10:13:06.423Z,21.41
2024-05-09T10:15:53.626Z,21.11
2024-05-09T10:18:28.274Z,20.86
2024-05-09T10:20:57.362Z,20.63
2024-05-09T10:23:36.310Z,20.55
2024-05-09T10:26:07.622Z,20.60
2024-05-09T10:28:42.941Z,20.69
2024-05-09T10:31:11.754Z,20.68
2024-05-09T10:33:51.559Z,21.01
2024-05-09T10:36:21.303Z,21.27
2024-05-09T10:38:52.385Z,21.48
2024-05-09T10:41:20.111Z,21.69
2024-05-09T10:43:47.411Z,21.50
2024-05-09T10:46:19.035Z,21.42
2024-05-09T10:48:47.975Z,21.38
2024-05-09T10:51:18.275Z,21.34
2024-05-09T10:53:46.819Z,21.34
2024-05-09T10:56:14.437Z,21.49
2024-05-09T10:58:41.399Z,21.54
2024-05-09T11:01:09.187Z,21.69
2024-05-09T11:03:36.988Z,21.78
2024-05-09T11:06:04.200Z,21.76
2024-05-09T11:08:32.718Z,21.60
2024-05-09T11:11:00.175Z,21.55
2024-05-09T11:13:31.536Z,21.55
2024-05-09T11:15:59.243Z,21.52
2024-05-09T11:18:31.715Z,21.38
2024-05-09T11:21:01.507Z,21.43
2024-05-09T11:23:30.363Z,21.38
2024-05-09T11:25:58.381Z,21.36
2024-05-09T11:28:27.122Z,21.41
2024-05-09T11:31:08.357Z,21.57
2024-05-09T11:33:45.488Z,21.62
2024-05-09T11:36:12.693Z,21.66
2024-05-09T11:38:39.618Z,21.64
2024-05-09T11:41:06.686Z,21.75
2024-05-09T11:43:33.685Z,21.83
2024-05-09T11:46:01.041Z,21.79
2024-05-09T11:48:28.151Z,21.79
2024-05-09T11:50:55.595Z,21.76
2024-05-09T11:53:22.306Z,21.74
2024-05-09T11:55:48.923Z,21.72
2024-05-09T11:58:17.605Z,21.71
2024-05-09T12:00:45.134Z,21.56
2024-05-09T12:03:11.955Z,21.43
2024-05-09T12:05:38.676Z,21.34
2024-05-09T12:08:06.569Z,21.33
2024-05-09T12:10:35.635Z,21.26
2024-05-09T12:13:05.491Z,21.20
2024-05-09T12:15:35.969Z,21.25
2024-05-09T12:18:04.543Z,21.31
2024-05-09T12:20:37.072Z,21.27
2024-05-09T12:23:06.550Z,21.27
2024-05-09T12:25:33.353Z,21.29
2024-05-09T12:28:00.475Z,21.29
2024-05-09T12:30:35.573Z,21.34
2024-05-09T12:33:06.504Z,21.34
2024-05-09T12:35:33.323Z,21.35
2024-05-09T12:38:00.223Z,21.34
2024-05-09T12:40:35.169Z,21.31
2024-05-09T12:43:05.341Z,21.21
2024-05-09T12:45:32.175Z,21.21
2024-05-09T12:47:59.457Z,21.26
2024-05-09T12:50:32.284Z,21.34
2024-05-09T12:53:01.579Z,21.39
2024-05-09T12:55:31.800Z,21.41
2024-05-09T12:58:06.867Z,21.38
2024-05-09T13:00:34.560Z,21.43
2024-05-09T13:03:01.656Z,21.39
2024-05-09T13:05:29.078Z,21.31
2024-05-09T13:07:56.851Z,21.25
2024-05-09T13:10:30.848Z,21.32
2024-05-09T13:12:59.975Z,21.35
2024-05-09T13:15:27.020Z,21.38
2024-05-09T13:17:54.822Z,21.53
2024-05-09T13:20:29.482Z,21.61
2024-05-09T13:23:01.401Z,21.69
2024-05-09T13:25:28.144Z,21.58
2024-05-09T13:27:55.352Z,21.35
2024-05-09T13:30:29.497Z,21.23
2024-05-09T13:33:05.751Z,21.08
2024-05-09T13:35:34.324Z,21.10
2024-05-09T13:38:01.978Z,21.06
2024-05-09T13:40:33.658Z,20.99
2024-05-09T13:43:03.223Z,20.80
2024-05-09T13:45:29.994Z,20.69
2024-05-09T13:47:57.100Z,20.50
2024-05-09T13:50:32.913Z,20.32
2024-05-09T13:53:02.451Z,20.13
2024-05-09T13:55:29.068Z,20.07
2024-05-09T13:57:56.112Z,20.07
2024-05-09T14:00:37.250Z,20.13
2024-05-09T14:03:10.058Z,20.23
2024-05-09T14:05:36.957Z,20.30
2024-05-09T14:08:03.976Z,20.34
2024-05-09T14:10:31.979Z,20.39
2024-05-09T14:12:59.729Z,20.37
2024-05-09T14:15:26.606Z,20.23
2024-05-09T14:17:53.693Z,20.22
2024-05-09T14:20:30.027Z,20.31
2024-05-09T14:23:01.499Z,20.34
2024-05-09T14:25:29.783Z,20.33
2024-05-09T14:27:58.152Z,20.32
2024-05-09T14:30:34.062Z,20.34
2024-05-09T14:33:04.927Z,20.38
2024-05-09T14:35:31.864Z,20.40
2024-05-09T14:37:58.877Z,20.40
2024-05-09T14:40:36.244Z,20.35
2024-05-09T14:43:07.977Z,20.38
2024-05-09T14:45:34.999Z,20.28
2024-05-09T14:48:02.830Z,20.30
2024-05-09T14:50:35.847Z,20.42
2024-05-09T14:53:06.679Z,20.47
2024-05-09T14:55:35.923Z,20.66
2024-05-09T14:58:03.846Z,21.03
2024-05-09T15:00:35.829Z,21.07
2024-05-09T15:03:04.646Z,21.12
2024-05-09T15:05:31.375Z,21.58
2024-05-09T15:07:58.739Z,21.70
2024-05-09T15:10:33.970Z,21.60
2024-05-09T15:13:04.473Z,21.46
2024-05-09T15:15:31.519Z,21.34
2024-05-09T15:17:58.458Z,21.04
2024-05-09T15:20:33.050Z,21.20
2024-05-09T15:23:02.825Z,21.36
2024-05-09T15:25:29.664Z,21.37
2024-05-09T15:27:56.604Z,21.30
2024-05-09T15:30:30.574Z,21.38
2024-05-09T15:33:00.316Z,21.63
2024-05-09T15:35:27.111Z,21.59
2024-05-09T15:37:53.864Z,21.62
2024-05-09T15:40:30.544Z,21.86
2024-05-09T15:43:04.454Z,22.07
2024-05-09T15:45:31.236Z,22.16
2024-05-09T15:47:58.389Z,22.26
2024-05-09T15:50:35.386Z,22.21
2024-05-09T15:53:06.311Z,22.23
2024-05-09T15:55:34.213Z,22.32
2024-05-09T15:58:02.507Z,22.21
2024-05-09T16:00:37.377Z,22.24
2024-05-09T16:03:08.181Z,22.17
2024-05-09T16:05:35.002Z,22.28
2024-05-09T16:08:02.087Z,22.33
2024-05-09T16:10:32.774Z,22.30
2024-05-09T16:13:01.796Z,22.11
2024-05-09T16:15:28.854Z,21.72
2024-05-09T16:17:56.235Z,21.25
2024-05-09T16:20:34.283Z,21.23
2024-05-09T16:23:06.455Z,21.21
2024-05-09T16:25:33.339Z,21.10
2024-05-09T16:28:00.215Z,21.03
2024-05-09T16:30:33.937Z,21.14
2024-05-09T16:33:03.497Z,21.07
2024-05-09T16:35:30.887Z,20.81
2024-05-09T16:37:57.523Z,20.89
2024-05-09T16:40:34.217Z,20.98
2024-05-09T16:43:05.614Z,21.01
2024-05-09T16:45:33.190Z,21.05
2024-05-09T16:48:00.534Z,20.95
2024-05-09T16:50:32.527Z,21.00
2024-05-09T16:53:01.900Z,21.03
2024-05-09T16:55:28.962Z,20.93
2024-05-09T16:57:56.971Z,20.79
2024-05-09T17:00:35.145Z,20.60
2024-05-09T17:03:08.780Z,20.31
2024-05-09T17:05:36.224Z,20.17
2024-05-09T17:08:03.466Z,20.17
2024-05-09T17:10:33.611Z,20.24
2024-05-09T17:13:06.691Z,20.35
2024-05-09T17:15:35.274Z,20.35
2024-05-09T17:18:02.826Z,20.38
2024-05-09T17:20:34.161Z,20.39
2024-05-09T17:23:04.587Z,20.40
2024-05-09T17:25:31.811Z,20.38
2024-05-09T17:28:05.261Z,20.40
2024-05-09T17:30:36.320Z,20.41
2024-05-09T17:33:06.517Z,20.25
2024-05-09T17:35:33.378Z,20.17
2024-05-09T17:38:01.605Z,20.07
2024-05-09T17:40:33.536Z,19.95
2024-05-09T17:43:04.157Z,19.89
2024-05-09T17:45:31.727Z,19.83
2024-05-09T17:47:58.800Z,19.70
2024-05-09T17:50:31.676Z,19.62
2024-05-09T17:53:02.958Z,19.53
2024-05-09T17:55:29.836Z,19.44
2024-05-09T17:57:56.914Z,19.32
2024-05-09T18:00:34.301Z,19.16
2024-05-09T18:03:06.335Z,18.96
2024-05-09T18:05:34.037Z,18.86
2024-05-09T18:08:00.819Z,18.72
2024-05-09T18:10:35.166Z,18.57
2024-05-09T18:13:05.449Z,18.43
2024-05-09T18:15:32.633Z,18.26
2024-05-09T18:17:59.564Z,18.13
2024-05-09T18:20:36.646Z,18.00
2024-05-09T18:23:08.841Z,17.94
2024-05-09T18:25:35.472Z,17.85
2024-05-09T18:28:03.834Z,17.80
2024-05-09T18:30:35.002Z,17.76
2024-05-09T18:33:04.905Z,17.68
2024-05-09T18:35:32.668Z,17.61
2024-05-09T18:37:59.364Z,17.54
2024-05-09T18:40:33.196Z,17.49
2024-05-09T18:43:03.734Z,17.37
2024-05-09T18:45:30.864Z,17.32
2024-05-09T18:47:57.972Z,17.28
2024-05-09T18:50:33.747Z,17.20
2024-05-09T18:53:06.398Z,17.11
2024-05-09T18:55:33.294Z,17.03
2024-05-09T18:58:00.135Z,16.99
2024-05-09T19:00:34.025Z,16.91
2024-05-09T19:03:06.004Z,16.86
2024-05-09T19:05:34.954Z,16.80
2024-05-09T19:08:02.266Z,16.73
2024-05-09T19:10:33.788Z,16.68
2024-05-09T19:13:04.332Z,16.61
2024-05-09T19:15:33.790Z,16.54
2024-05-09T19:18:00.730Z,16.49
2024-05-09T19:20:33.184Z,16.48
2024-05-09T19:23:01.435Z,16.43
2024-05-09T19:25:28.061Z,16.37
2024-05-09T19:27:54.623Z,16.31
2024-05-09T19:30:29.896Z,16.25
2024-05-09T19:33:04.667Z,16.16
2024-05-09T19:35:31.511Z,16.09
2024-05-09T19:37:58.373Z,16.04
2024-05-09T19:40:30.935Z,15.97
2024-05-09T19:42:59.794Z,15.92
2024-05-09T19:45:26.391Z,15.88
2024-05-09T19:47:53.156Z,15.83
2024-05-09T19:50:27.000Z,15.79
2024-05-09T19:53:02.714Z,15.74
2024-05-09T19:55:29.385Z,15.66
2024-05-09T19:57:56.019Z,15.63
2024-05-09T20:00:29.406Z,15.60
2024-05-09T20:03:02.261Z,15.54
2024-05-09T20:05:31.098Z,15.46
2024-05-09T22:24:01.792Z,12.37
2024-05-09T22:26:28.425Z,12.34
2024-05-09T22:28:54.968Z,12.33
2024-05-09T23:28:12.703Z,11.74
2024-05-09T23:30:41.030Z,11.71
2024-05-09T23:33:13.092Z,11.70
2024-05-09T23:35:44.519Z,11.69
2024-05-09T23:38:11.729Z,11.69
2024-05-09T23:40:40.798Z,11.67
2024-05-09T23:43:10.349Z,11.62
2024-05-09T23:45:37.515Z,11.60
2024-05-09T23:48:04.764Z,11.57
2024-05-09T23:50:36.058Z,11.49
2024-05-09T23:53:06.115Z,11.43
2024-05-09T23:55:33.660Z,11.35
2024-05-09T23:58:00.803Z,11.27
